PWSweather.com
Personal Weather Stations
Station Observations
WAREHAM1
West Wareham, MA 02576

West Wareham, MA 02576

Lat: 41.7961059, Lon: -70.775612

Elevation: 88

Station Type: Davis Vantage Vue

http://www.gateway2capecod.com

High Low Average
Temperature 75.9°F24.4°C 66.0°F18.9°C 71.4°F21.9°C
Dew Point 74.3°F23.5°C 65.5°F18.6°C 70.5°F21.4°C
Winds 4.0 mph 6.4 kmh Calm Calm 1.0 mph S1.6 kmh S
Wind Gusts 9.0 mph14.5 kmh -- 2.0 mph3.2 kmh
Humidity 98% 93% 97%
Pressure 29.97 in1014.9 mb 29.70 in1005.8 mb -
Precipitation 1.03 in26.2 mm - -
Hour Temp Dew Point Humidity Winds Wind Gusts Pressure Precip Precip Rate Daily Precip Total
12:01 AM 71.1°F21.7°C 69.8°F21.0°C 96% Calm Calm -- 29.98 in1015.2 mb 0.00 in0.0 mm 0.00 in0.0 mm 0.00 in0.0 mm
12:11 AM 71.1°F21.7°C 69.8°F21.0°C 96% Calm Calm -- 29.98 in1015.2 mb 0.00 in0.0 mm 0.00 in0.0 mm 0.00 in0.0 mm
12:21 AM 71.1°F21.7°C 69.8°F21.0°C 96% Calm Calm -- 29.98 in1015.2 mb 0.00 in0.0 mm 0.00 in0.0 mm 0.00 in0.0 mm
12:31 AM 71.2°F21.8°C 70.3°F21.3°C 97% Calm Calm -- 29.97 in1014.9 mb 0.00 in0.0 mm 0.00 in0.0 mm 0.00 in0.0 mm
12:41 AM 71.2°F21.8°C 70.3°F21.3°C 97% Calm Calm -- 29.97 in1014.9 mb 0.00 in0.0 mm 0.00 in0.0 mm 0.00 in0.0 mm
12:51 AM 71.4°F21.9°C 70.5°F21.4°C 97% Calm Calm 0.9 mph1.4 kmh 29.97 in1014.9 mb 0.00 in0.0 mm 0.00 in0.0 mm 0.00 in0.0 mm
01:01 AM 71.6°F22.0°C 70.7°F21.5°C 97% Calm Calm 0.9 mph1.4 kmh 29.97 in1014.9 mb 0.00 in0.0 mm 0.00 in0.0 mm 0.00 in0.0 mm
01:11 AM 71.6°F22.0°C 70.7°F21.5°C 97% Calm Calm -- 29.97 in1014.9 mb 0.00 in0.0 mm 0.00 in0.0 mm 0.00 in0.0 mm
01:21 AM 71.6°F22.0°C 70.7°F21.5°C 97% Calm Calm -- 29.97 in1014.9 mb 0.00 in0.0 mm 0.00 in0.0 mm 0.00 in0.0 mm
01:31 AM 71.6°F22.0°C 70.7°F21.5°C 97% Calm Calm -- 29.97 in1014.9 mb 0.00 in0.0 mm 0.00 in0.0 mm 0.00 in0.0 mm
01:41 AM 71.6°F22.0°C 70.7°F21.5°C 97% Calm Calm -- 29.96 in1014.6 mb 0.01 in0.3 mm 0.06 in1.5 mm 0.01 in0.3 mm
01:51 AM 71.4°F21.9°C 70.5°F21.4°C 97% Calm Calm -- 29.96 in1014.6 mb 0.01 in0.3 mm 0.00 in0.0 mm 0.01 in0.3 mm
02:01 AM 71.4°F21.9°C 70.5°F21.4°C 97% Calm Calm -- 29.96 in1014.6 mb 0.01 in0.3 mm 0.00 in0.0 mm 0.01 in0.3 mm
02:11 AM 71.4°F21.9°C 70.5°F21.4°C 97% Calm Calm -- 29.96 in1014.6 mb 0.01 in0.3 mm 0.00 in0.0 mm 0.01 in0.3 mm
02:21 AM 71.4°F21.9°C 70.5°F21.4°C 97% Calm Calm -- 29.95 in1014.2 mb 0.01 in0.3 mm 0.00 in0.0 mm 0.01 in0.3 mm
02:31 AM 71.4°F21.9°C 70.5°F21.4°C 97% Calm Calm -- 29.95 in1014.2 mb 0.01 in0.3 mm 0.00 in0.0 mm 0.01 in0.3 mm
02:41 AM 71.4°F21.9°C 70.5°F21.4°C 97% Calm Calm -- 29.94 in1013.9 mb 0.00 in0.0 mm 0.00 in0.0 mm 0.01 in0.3 mm
02:51 AM 71.2°F21.8°C 70.3°F21.3°C 97% Calm Calm -- 29.93 in1013.5 mb 0.00 in0.0 mm 0.00 in0.0 mm 0.01 in0.3 mm
03:01 AM 71.2°F21.8°C 70.3°F21.3°C 97% Calm Calm -- 29.93 in1013.5 mb 0.00 in0.0 mm 0.00 in0.0 mm 0.01 in0.3 mm
03:11 AM 71.2°F21.8°C 70.3°F21.3°C 97% Calm Calm -- 29.93 in1013.5 mb 0.00 in0.0 mm 0.00 in0.0 mm 0.01 in0.3 mm
03:21 AM 71.1°F21.7°C 70.2°F21.2°C 97% Calm Calm -- 29.93 in1013.5 mb 0.00 in0.0 mm 0.00 in0.0 mm 0.01 in0.3 mm
03:31 AM 71.2°F21.8°C 70.3°F21.3°C 97% Calm Calm -- 29.92 in1013.2 mb 0.00 in0.0 mm 0.00 in0.0 mm 0.01 in0.3 mm
03:41 AM 71.2°F21.8°C 70.7°F21.5°C 98% Calm Calm -- 29.92 in1013.2 mb 0.00 in0.0 mm 0.00 in0.0 mm 0.01 in0.3 mm
03:51 AM 71.2°F21.8°C 70.7°F21.5°C 98% Calm Calm 1.0 mph1.6 kmh 29.92 in1013.2 mb 0.00 in0.0 mm 0.00 in0.0 mm 0.01 in0.3 mm
04:01 AM 71.4°F21.9°C 70.9°F21.6°C 98% Calm Calm -- 29.91 in1012.9 mb 0.00 in0.0 mm 0.00 in0.0 mm 0.01 in0.3 mm
04:11 AM 71.2°F21.8°C 70.3°F21.3°C 97% Calm Calm -- 29.91 in1012.9 mb 0.00 in0.0 mm 0.00 in0.0 mm 0.01 in0.3 mm
04:21 AM 71.2°F21.8°C 70.7°F21.5°C 98% Calm Calm -- 29.91 in1012.9 mb 0.00 in0.0 mm 0.00 in0.0 mm 0.01 in0.3 mm
04:31 AM 71.2°F21.8°C 70.7°F21.5°C 98% Calm Calm -- 29.90 in1012.5 mb 0.00 in0.0 mm 0.00 in0.0 mm 0.01 in0.3 mm
04:41 AM 71.2°F21.8°C 70.7°F21.5°C 98% Calm Calm -- 29.90 in1012.5 mb 0.00 in0.0 mm 0.00 in0.0 mm 0.01 in0.3 mm
04:51 AM 71.2°F21.8°C 70.7°F21.5°C 98% Calm Calm -- 29.90 in1012.5 mb 0.00 in0.0 mm 0.00 in0.0 mm 0.01 in0.3 mm
05:01 AM 71.2°F21.8°C 70.7°F21.5°C 98% Calm Calm -- 29.89 in1012.2 mb 0.00 in0.0 mm 0.00 in0.0 mm 0.01 in0.3 mm
05:11 AM 71.2°F21.8°C 70.7°F21.5°C 98% Calm Calm -- 29.89 in1012.2 mb 0.00 in0.0 mm 0.00 in0.0 mm 0.01 in0.3 mm
05:21 AM 71.2°F21.8°C 70.7°F21.5°C 98% Calm Calm 1.0 mph1.6 kmh 29.89 in1012.2 mb 0.02 in0.5 mm 0.12 in3.0 mm 0.03 in0.8 mm
05:31 AM 71.4°F21.9°C 70.9°F21.6°C 98% Calm Calm 0.9 mph1.4 kmh 29.88 in1011.9 mb 0.02 in0.5 mm 0.00 in0.0 mm 0.03 in0.8 mm
05:41 AM 71.4°F21.9°C 70.9°F21.6°C 98% Calm Calm -- 29.88 in1011.9 mb 0.02 in0.5 mm 0.00 in0.0 mm 0.03 in0.8 mm
05:51 AM 71.4°F21.9°C 70.9°F21.6°C 98% Calm Calm 1.0 mph1.6 kmh 29.88 in1011.9 mb 0.02 in0.5 mm 0.00 in0.0 mm 0.03 in0.8 mm
06:01 AM 71.4°F21.9°C 70.9°F21.6°C 98% Calm Calm 1.0 mph1.6 kmh 29.87 in1011.5 mb 0.02 in0.5 mm 0.00 in0.0 mm 0.03 in0.8 mm
06:11 AM 71.4°F21.9°C 70.9°F21.6°C 98% Calm Calm 1.0 mph1.6 kmh 29.87 in1011.5 mb 0.02 in0.5 mm 0.00 in0.0 mm 0.03 in0.8 mm
06:22 AM 71.2°F21.8°C 70.7°F21.5°C 98% Calm Calm 1.0 mph1.6 kmh 29.87 in1011.5 mb 0.00 in0.0 mm 0.00 in0.0 mm 0.03 in0.8 mm
06:32 AM 71.2°F21.8°C 70.7°F21.5°C 98% Calm Calm 1.0 mph1.6 kmh 29.87 in1011.5 mb 0.00 in0.0 mm 0.00 in0.0 mm 0.03 in0.8 mm
06:42 AM 71.2°F21.8°C 70.7°F21.5°C 98% Calm Calm -- 29.86 in1011.2 mb 0.00 in0.0 mm 0.00 in0.0 mm 0.03 in0.8 mm
06:52 AM 71.4°F21.9°C 70.9°F21.6°C 98% Calm Calm -- 29.86 in1011.2 mb 0.00 in0.0 mm 0.00 in0.0 mm 0.03 in0.8 mm
07:02 AM 71.6°F22.0°C 71.1°F21.7°C 98% Calm Calm -- 29.85 in1010.8 mb 0.00 in0.0 mm 0.00 in0.0 mm 0.03 in0.8 mm
07:12 AM 72.0°F22.2°C 71.4°F21.9°C 98% Calm Calm -- 29.85 in1010.8 mb 0.00 in0.0 mm 0.00 in0.0 mm 0.03 in0.8 mm
07:22 AM 72.1°F22.3°C 71.6°F22.0°C 98% Calm Calm 1.0 mph1.6 kmh 29.85 in1010.8 mb 0.00 in0.0 mm 0.00 in0.0 mm 0.03 in0.8 mm
07:32 AM 72.7°F22.6°C 72.1°F22.3°C 98% Calm Calm 2.0 mph3.2 kmh 29.84 in1010.5 mb 0.00 in0.0 mm 0.00 in0.0 mm 0.03 in0.8 mm
07:42 AM 72.9°F22.7°C 72.3°F22.4°C 98% Calm Calm 2.0 mph3.2 kmh 29.84 in1010.5 mb 0.00 in0.0 mm 0.00 in0.0 mm 0.03 in0.8 mm
07:52 AM 73.2°F22.9°C 72.3°F22.4°C 97% 0.9 mph SW1.4 kmh SW 3.0 mph4.8 kmh 29.83 in1010.2 mb 0.00 in0.0 mm 0.00 in0.0 mm 0.03 in0.8 mm
08:02 AM 73.8°F23.2°C 72.9°F22.7°C 97% Calm Calm 3.0 mph4.8 kmh 29.83 in1010.2 mb 0.00 in0.0 mm 0.00 in0.0 mm 0.03 in0.8 mm
08:12 AM 74.1°F23.4°C 73.2°F22.9°C 97% 0.9 mph SW1.4 kmh SW 4.0 mph6.4 kmh 29.83 in1010.2 mb 0.00 in0.0 mm 0.00 in0.0 mm 0.03 in0.8 mm
08:22 AM 74.7°F23.7°C 73.4°F23.0°C 96% 0.9 mph SSW1.4 kmh SSW 5.0 mph8.0 kmh 29.82 in1009.8 mb 0.00 in0.0 mm 0.00 in0.0 mm 0.03 in0.8 mm
08:32 AM 75.0°F23.9°C 73.8°F23.2°C 96% 2.0 mph SSW3.2 kmh SSW 4.0 mph6.4 kmh 29.82 in1009.8 mb 0.00 in0.0 mm 0.00 in0.0 mm 0.03 in0.8 mm
08:42 AM 75.6°F24.2°C 73.9°F23.3°C 95% 2.0 mph SSW3.2 kmh SSW 6.0 mph9.7 kmh 29.81 in1009.5 mb 0.00 in0.0 mm 0.00 in0.0 mm 0.03 in0.8 mm
08:52 AM 75.6°F24.2°C 73.8°F23.2°C 94% 2.0 mph SSW3.2 kmh SSW 4.9 mph7.9 kmh 29.81 in1009.5 mb 0.00 in0.0 mm 0.00 in0.0 mm 0.03 in0.8 mm
09:02 AM 75.6°F24.2°C 73.8°F23.2°C 94% 2.0 mph SSW3.2 kmh SSW 5.0 mph8.0 kmh 29.80 in1009.1 mb 0.00 in0.0 mm 0.00 in0.0 mm 0.03 in0.8 mm
09:12 AM 75.7°F24.3°C 73.6°F23.1°C 93% 2.0 mph SSE3.2 kmh SSE 6.9 mph11.1 kmh 29.80 in1009.1 mb 0.00 in0.0 mm 0.00 in0.0 mm 0.03 in0.8 mm
09:22 AM 75.9°F24.4°C 73.8°F23.2°C 93% 2.9 mph S4.7 kmh S 8.1 mph13.0 kmh 29.80 in1009.1 mb 0.00 in0.0 mm 0.00 in0.0 mm 0.03 in0.8 mm
09:32 AM 75.4°F24.1°C 73.6°F23.1°C 94% 2.9 mph S4.7 kmh S 4.9 mph7.9 kmh 29.79 in1008.8 mb 0.01 in0.3 mm 0.06 in1.5 mm 0.04 in1.0 mm
09:42 AM 75.0°F23.9°C 73.4°F23.0°C 95% 2.0 mph SSW3.2 kmh SSW 6.0 mph9.7 kmh 29.78 in1008.5 mb 0.01 in0.3 mm 0.00 in0.0 mm 0.04 in1.0 mm
09:52 AM 74.8°F23.8°C 73.2°F22.9°C 95% 2.9 mph SSW4.7 kmh SSW 6.9 mph11.1 kmh 29.78 in1008.5 mb 0.01 in0.3 mm 0.00 in0.0 mm 0.04 in1.0 mm
10:02 AM 74.8°F23.8°C 73.2°F22.9°C 95% 2.0 mph SSW3.2 kmh SSW 4.9 mph7.9 kmh 29.78 in1008.5 mb 0.01 in0.3 mm 0.00 in0.0 mm 0.04 in1.0 mm
10:12 AM 74.8°F23.8°C 73.6°F23.1°C 96% 2.9 mph SSW4.7 kmh SSW 6.9 mph11.1 kmh 29.78 in1008.5 mb 0.01 in0.3 mm 0.00 in0.0 mm 0.04 in1.0 mm
10:22 AM 74.8°F23.8°C 73.2°F22.9°C 95% 2.9 mph SW4.7 kmh SW 6.9 mph11.1 kmh 29.78 in1008.5 mb 0.01 in0.3 mm 0.00 in0.0 mm 0.04 in1.0 mm
10:32 AM 75.2°F24.0°C 73.6°F23.1°C 95% 2.9 mph S4.7 kmh S 6.0 mph9.7 kmh 29.77 in1008.1 mb 0.00 in0.0 mm 0.00 in0.0 mm 0.04 in1.0 mm
10:42 AM 75.6°F24.2°C 73.8°F23.2°C 94% 2.0 mph WSW3.2 kmh WSW 4.9 mph7.9 kmh 29.77 in1008.1 mb 0.00 in0.0 mm 0.00 in0.0 mm 0.04 in1.0 mm
10:52 AM 75.4°F24.1°C 73.6°F23.1°C 94% 2.0 mph SW3.2 kmh SW 6.0 mph9.7 kmh 29.77 in1008.1 mb 0.00 in0.0 mm 0.00 in0.0 mm 0.04 in1.0 mm
11:02 AM 75.4°F24.1°C 73.6°F23.1°C 94% 2.9 mph SW4.7 kmh SW 6.0 mph9.7 kmh 29.76 in1007.8 mb 0.00 in0.0 mm 0.00 in0.0 mm 0.04 in1.0 mm
11:12 AM 75.2°F24.0°C 73.4°F23.0°C 94% 2.0 mph SSW3.2 kmh SSW 6.9 mph11.1 kmh 29.75 in1007.5 mb 0.00 in0.0 mm 0.00 in0.0 mm 0.04 in1.0 mm
11:22 AM 75.4°F24.1°C 73.6°F23.1°C 94% 2.0 mph SW3.2 kmh SW 6.9 mph11.1 kmh 29.75 in1007.5 mb 0.00 in0.0 mm 0.00 in0.0 mm 0.04 in1.0 mm
11:32 AM 75.2°F24.0°C 73.6°F23.1°C 95% 2.0 mph SW3.2 kmh SW 4.9 mph7.9 kmh 29.75 in1007.5 mb 0.01 in0.3 mm 0.06 in1.5 mm 0.05 in1.3 mm
11:42 AM 75.0°F23.9°C 73.4°F23.0°C 95% 2.0 mph SSW3.2 kmh SSW 4.9 mph7.9 kmh 29.75 in1007.5 mb 0.01 in0.3 mm 0.00 in0.0 mm 0.05 in1.3 mm
11:52 AM 75.0°F23.9°C 73.4°F23.0°C 95% 2.0 mph SSW3.2 kmh SSW 6.0 mph9.7 kmh 29.75 in1007.5 mb 0.01 in0.3 mm 0.00 in0.0 mm 0.05 in1.3 mm
12:02 PM 75.0°F23.9°C 73.8°F23.2°C 96% 0.9 mph SW1.4 kmh SW 4.9 mph7.9 kmh 29.74 in1007.1 mb 0.01 in0.3 mm 0.00 in0.0 mm 0.05 in1.3 mm
12:12 PM 75.0°F23.9°C 73.8°F23.2°C 96% 2.0 mph SSW3.2 kmh SSW 6.0 mph9.7 kmh 29.74 in1007.1 mb 0.01 in0.3 mm 0.00 in0.0 mm 0.05 in1.3 mm
12:22 PM 75.0°F23.9°C 73.8°F23.2°C 96% 2.0 mph S3.2 kmh S 4.9 mph7.9 kmh 29.74 in1007.1 mb 0.01 in0.3 mm 0.00 in0.0 mm 0.05 in1.3 mm
12:32 PM 75.0°F23.9°C 73.4°F23.0°C 95% 2.0 mph SW3.2 kmh SW 4.9 mph7.9 kmh 29.74 in1007.1 mb 0.00 in0.0 mm 0.00 in0.0 mm 0.05 in1.3 mm
12:42 PM 75.0°F23.9°C 73.4°F23.0°C 95% 2.0 mph SSW3.2 kmh SSW 4.9 mph7.9 kmh 29.74 in1007.1 mb 0.00 in0.0 mm 0.00 in0.0 mm 0.05 in1.3 mm
12:52 PM 75.0°F23.9°C 73.8°F23.2°C 96% 2.0 mph WSW3.2 kmh WSW 6.0 mph9.7 kmh 29.74 in1007.1 mb 0.01 in0.3 mm 0.06 in1.5 mm 0.06 in1.5 mm
01:02 PM 75.0°F23.9°C 73.8°F23.2°C 96% 0.9 mph SW1.4 kmh SW 4.9 mph7.9 kmh 29.73 in1006.8 mb 0.01 in0.3 mm 0.00 in0.0 mm 0.06 in1.5 mm
01:12 PM 74.8°F23.8°C 73.6°F23.1°C 96% 0.9 mph SW1.4 kmh SW 2.9 mph4.7 kmh 29.73 in1006.8 mb 0.19 in4.8 mm 1.08 in27.4 mm 0.25 in6.4 mm
01:22 PM 75.0°F23.9°C 74.1°F23.4°C 97% 0.9 mph SW1.4 kmh SW 2.9 mph4.7 kmh 29.73 in1006.8 mb 0.22 in5.6 mm 0.18 in4.6 mm 0.27 in6.9 mm
01:32 PM 75.2°F24.0°C 74.3°F23.5°C 97% Calm Calm 0.9 mph1.4 kmh 29.72 in1006.4 mb 0.22 in5.6 mm 0.00 in0.0 mm 0.27 in6.9 mm
01:42 PM 74.8°F23.8°C 73.6°F23.1°C 96% 0.9 mph SW1.4 kmh SW 2.9 mph4.7 kmh 29.72 in1006.4 mb 0.22 in5.6 mm 0.00 in0.0 mm 0.27 in6.9 mm
01:52 PM 74.7°F23.7°C 73.8°F23.2°C 97% 0.9 mph SW1.4 kmh SW 2.9 mph4.7 kmh 29.72 in1006.4 mb 0.21 in5.3 mm 0.00 in0.0 mm 0.27 in6.9 mm
02:02 PM 74.5°F23.6°C 73.6°F23.1°C 97% 0.9 mph SSW1.4 kmh SSW 2.9 mph4.7 kmh 29.72 in1006.4 mb 0.21 in5.3 mm 0.00 in0.0 mm 0.27 in6.9 mm
02:12 PM 74.5°F23.6°C 73.6°F23.1°C 97% 0.9 mph SSW1.4 kmh SSW 4.0 mph6.4 kmh 29.71 in1006.1 mb 0.03 in0.8 mm 0.00 in0.0 mm 0.27 in6.9 mm
02:22 PM 74.5°F23.6°C 73.6°F23.1°C 97% 0.9 mph SW1.4 kmh SW 5.0 mph8.0 kmh 29.70 in1005.8 mb 0.00 in0.0 mm 0.00 in0.0 mm 0.27 in6.9 mm
02:32 PM 74.3°F23.5°C 73.4°F23.0°C 97% 2.0 mph SW3.2 kmh SW 6.0 mph9.7 kmh 29.70 in1005.8 mb 0.01 in0.3 mm 0.06 in1.5 mm 0.29 in7.4 mm
02:42 PM 73.6°F23.1°C 72.3°F22.4°C 96% 4.0 mph S6.4 kmh S 9.0 mph14.5 kmh 29.73 in1006.8 mb 0.17 in4.3 mm 0.96 in24.4 mm 0.45 in11.4 mm
02:52 PM 72.7°F22.6°C 71.4°F21.9°C 96% Calm Calm 4.9 mph7.9 kmh 29.74 in1007.1 mb 0.36 in9.1 mm 1.14 in29.0 mm 0.64 in16.3 mm
03:02 PM 72.1°F22.3°C 71.2°F21.8°C 97% Calm Calm 2.0 mph3.2 kmh 29.74 in1007.1 mb 0.46 in11.7 mm 0.12 in3.0 mm 0.73 in18.5 mm
03:12 PM 71.8°F22.1°C 70.9°F21.6°C 97% Calm Calm 0.9 mph1.4 kmh 29.74 in1007.1 mb 0.50 in12.7 mm 0.24 in6.1 mm 0.78 in19.8 mm
03:22 PM 71.8°F22.1°C 70.9°F21.6°C 97% Calm Calm 0.9 mph1.4 kmh 29.74 in1007.1 mb 0.53 in13.5 mm 0.18 in4.6 mm 0.80 in20.3 mm
03:32 PM 71.4°F21.9°C 70.5°F21.4°C 97% Calm Calm 2.0 mph3.2 kmh 29.74 in1007.1 mb 0.56 in14.2 mm 0.18 in4.6 mm 0.84 in21.3 mm
03:42 PM 71.2°F21.8°C 70.3°F21.3°C 97% Calm Calm -- 29.75 in1007.5 mb 0.43 in10.9 mm 0.00 in0.0 mm 0.87 in22.1 mm
03:52 PM 71.2°F21.8°C 70.3°F21.3°C 97% Calm Calm -- 29.75 in1007.5 mb 0.26 in6.6 mm 0.00 in0.0 mm 0.90 in22.9 mm
04:02 PM 71.2°F21.8°C 70.3°F21.3°C 97% Calm Calm -- 29.75 in1007.5 mb 0.19 in4.8 mm 0.00 in0.0 mm 0.92 in23.4 mm
04:12 PM 71.2°F21.8°C 70.3°F21.3°C 97% Calm Calm -- 29.76 in1007.8 mb 0.17 in4.3 mm 0.00 in0.0 mm 0.94 in23.9 mm
04:22 PM 71.1°F21.7°C 70.2°F21.2°C 97% Calm Calm -- 29.76 in1007.8 mb 0.17 in4.3 mm 0.00 in0.0 mm 0.97 in24.6 mm
04:32 PM 71.1°F21.7°C 70.2°F21.2°C 97% Calm Calm -- 29.76 in1007.8 mb 0.14 in3.6 mm 0.00 in0.0 mm 0.98 in24.9 mm
04:42 PM 71.1°F21.7°C 70.2°F21.2°C 97% Calm Calm -- 29.75 in1007.5 mb 0.13 in3.3 mm 0.00 in0.0 mm 1.00 in25.4 mm
04:52 PM 71.1°F21.7°C 70.2°F21.2°C 97% Calm Calm -- 29.76 in1007.8 mb 0.12 in3.0 mm 0.00 in0.0 mm 1.01 in25.7 mm
05:02 PM 70.5°F21.4°C 69.6°F20.9°C 97% Calm Calm -- 29.75 in1007.5 mb 0.10 in2.5 mm 0.00 in0.0 mm 1.02 in25.9 mm
05:12 PM 70.2°F21.2°C 69.3°F20.7°C 97% Calm Calm 1.0 mph1.6 kmh 29.75 in1007.5 mb 0.08 in2.0 mm 0.00 in0.0 mm 1.02 in25.9 mm
05:22 PM 70.2°F21.2°C 69.3°F20.7°C 97% Calm Calm 3.0 mph4.8 kmh 29.75 in1007.5 mb 0.05 in1.3 mm 0.00 in0.0 mm 1.02 in25.9 mm
05:32 PM 70.0°F21.1°C 69.1°F20.6°C 97% Calm Calm 2.0 mph3.2 kmh 29.75 in1007.5 mb 0.04 in1.0 mm 0.00 in0.0 mm 1.02 in25.9 mm
05:42 PM 70.0°F21.1°C 69.4°F20.8°C 98% Calm Calm -- 29.75 in1007.5 mb 0.02 in0.5 mm 0.00 in0.0 mm 1.02 in25.9 mm
05:52 PM 69.8°F21.0°C 68.9°F20.5°C 97% Calm Calm 2.0 mph3.2 kmh 29.75 in1007.5 mb 0.02 in0.5 mm 0.00 in0.0 mm 1.03 in26.2 mm
06:02 PM 69.6°F20.9°C 68.7°F20.4°C 97% Calm Calm 0.9 mph1.4 kmh 29.75 in1007.5 mb 0.01 in0.3 mm 0.00 in0.0 mm 1.03 in26.2 mm
06:12 PM 69.4°F20.8°C 68.5°F20.3°C 97% Calm Calm -- 29.75 in1007.5 mb 0.01 in0.3 mm 0.00 in0.0 mm 1.03 in26.2 mm
06:22 PM 69.4°F20.8°C 68.5°F20.3°C 97% Calm Calm -- 29.75 in1007.5 mb 0.01 in0.3 mm 0.00 in0.0 mm 1.03 in26.2 mm
06:32 PM 69.3°F20.7°C 68.7°F20.4°C 98% Calm Calm -- 29.76 in1007.8 mb 0.01 in0.3 mm 0.00 in0.0 mm 1.03 in26.2 mm
06:42 PM 69.3°F20.7°C 68.7°F20.4°C 98% Calm Calm -- 29.75 in1007.5 mb 0.01 in0.3 mm 0.00 in0.0 mm 1.03 in26.2 mm
06:52 PM 69.3°F20.7°C 68.7°F20.4°C 98% Calm Calm -- 29.75 in1007.5 mb 0.00 in0.0 mm 0.00 in0.0 mm 1.03 in26.2 mm
07:02 PM 69.1°F20.6°C 68.5°F20.3°C 98% Calm Calm -- 29.75 in1007.5 mb 0.00 in0.0 mm 0.00 in0.0 mm 1.03 in26.2 mm
07:12 PM 69.1°F20.6°C 68.5°F20.3°C 98% Calm Calm -- 29.75 in1007.5 mb 0.00 in0.0 mm 0.00 in0.0 mm 1.03 in26.2 mm
07:22 PM 68.7°F20.4°C 68.2°F20.1°C 98% Calm Calm -- 29.75 in1007.5 mb 0.00 in0.0 mm 0.00 in0.0 mm 1.03 in26.2 mm
07:32 PM 68.5°F20.3°C 68.0°F20.0°C 98% Calm Calm -- 29.75 in1007.5 mb 0.00 in0.0 mm 0.00 in0.0 mm 1.03 in26.2 mm
07:42 PM 68.4°F20.2°C 67.8°F19.9°C 98% Calm Calm -- 29.75 in1007.5 mb 0.00 in0.0 mm 0.00 in0.0 mm 1.03 in26.2 mm
07:52 PM 68.2°F20.1°C 67.6°F19.8°C 98% Calm Calm -- 29.76 in1007.8 mb 0.00 in0.0 mm 0.00 in0.0 mm 1.03 in26.2 mm
08:02 PM 68.0°F20.0°C 67.5°F19.7°C 98% Calm Calm -- 29.76 in1007.8 mb 0.00 in0.0 mm 0.00 in0.0 mm 1.03 in26.2 mm
08:12 PM 67.8°F19.9°C 67.3°F19.6°C 98% Calm Calm -- 29.77 in1008.1 mb 0.00 in0.0 mm 0.00 in0.0 mm 1.03 in26.2 mm
08:22 PM 67.6°F19.8°C 67.1°F19.5°C 98% Calm Calm -- 29.77 in1008.1 mb 0.00 in0.0 mm 0.00 in0.0 mm 1.03 in26.2 mm
08:32 PM 67.8°F19.9°C 67.3°F19.6°C 98% Calm Calm -- 29.77 in1008.1 mb 0.00 in0.0 mm 0.00 in0.0 mm 1.03 in26.2 mm
08:42 PM 67.8°F19.9°C 67.3°F19.6°C 98% Calm Calm -- 29.77 in1008.1 mb 0.00 in0.0 mm 0.00 in0.0 mm 1.03 in26.2 mm
08:52 PM 67.8°F19.9°C 67.3°F19.6°C 98% Calm Calm -- 29.78 in1008.5 mb 0.00 in0.0 mm 0.00 in0.0 mm 1.03 in26.2 mm
09:02 PM 67.8°F19.9°C 67.3°F19.6°C 98% Calm Calm -- 29.78 in1008.5 mb 0.00 in0.0 mm 0.00 in0.0 mm 1.03 in26.2 mm
09:12 PM 67.8°F19.9°C 67.3°F19.6°C 98% Calm Calm -- 29.78 in1008.5 mb 0.00 in0.0 mm 0.00 in0.0 mm 1.03 in26.2 mm
09:22 PM 67.8°F19.9°C 67.3°F19.6°C 98% Calm Calm -- 29.78 in1008.5 mb 0.00 in0.0 mm 0.00 in0.0 mm 1.03 in26.2 mm
09:32 PM 67.8°F19.9°C 67.3°F19.6°C 98% Calm Calm -- 29.78 in1008.5 mb 0.00 in0.0 mm 0.00 in0.0 mm 1.03 in26.2 mm
09:42 PM 67.8°F19.9°C 67.3°F19.6°C 98% Calm Calm -- 29.78 in1008.5 mb 0.00 in0.0 mm 0.00 in0.0 mm 1.03 in26.2 mm
09:52 PM 67.8°F19.9°C 67.3°F19.6°C 98% Calm Calm -- 29.77 in1008.1 mb 0.00 in0.0 mm 0.00 in0.0 mm 1.03 in26.2 mm
10:02 PM 67.8°F19.9°C 67.3°F19.6°C 98% Calm Calm -- 29.78 in1008.5 mb 0.00 in0.0 mm 0.00 in0.0 mm 1.03 in26.2 mm
10:12 PM 67.6°F19.8°C 67.1°F19.5°C 98% Calm Calm -- 29.77 in1008.1 mb 0.00 in0.0 mm 0.00 in0.0 mm 1.03 in26.2 mm
10:22 PM 67.5°F19.7°C 66.9°F19.4°C 98% Calm Calm -- 29.78 in1008.5 mb 0.00 in0.0 mm 0.00 in0.0 mm 1.03 in26.2 mm
10:32 PM 67.5°F19.7°C 66.9°F19.4°C 98% Calm Calm -- 29.78 in1008.5 mb 0.00 in0.0 mm 0.00 in0.0 mm 1.03 in26.2 mm
10:42 PM 67.5°F19.7°C 66.9°F19.4°C 98% Calm Calm -- 29.78 in1008.5 mb 0.00 in0.0 mm 0.00 in0.0 mm 1.03 in26.2 mm
10:52 PM 67.6°F19.8°C 67.1°F19.5°C 98% Calm Calm 0.9 mph1.4 kmh 29.78 in1008.5 mb 0.00 in0.0 mm 0.00 in0.0 mm 1.03 in26.2 mm
11:02 PM 67.5°F19.7°C 66.9°F19.4°C 98% Calm Calm 0.9 mph1.4 kmh 29.78 in1008.5 mb 0.00 in0.0 mm 0.00 in0.0 mm 1.03 in26.2 mm
11:12 PM 67.5°F19.7°C 66.9°F19.4°C 98% Calm Calm -- 29.78 in1008.5 mb 0.00 in0.0 mm 0.00 in0.0 mm 1.03 in26.2 mm
11:22 PM 67.3°F19.6°C 66.7°F19.3°C 98% Calm Calm -- 29.78 in1008.5 mb 0.00 in0.0 mm 0.00 in0.0 mm 1.03 in26.2 mm
11:32 PM 67.3°F19.6°C 66.7°F19.3°C 98% Calm Calm -- 29.77 in1008.1 mb 0.00 in0.0 mm 0.00 in0.0 mm 1.03 in26.2 mm
11:42 PM 67.1°F19.5°C 66.6°F19.2°C 98% Calm Calm -- 29.77 in1008.1 mb 0.00 in0.0 mm 0.00 in0.0 mm 1.03 in26.2 mm
11:52 PM 66.9°F19.4°C 66.4°F19.1°C 98% Calm Calm -- 29.77 in1008.1 mb 0.00 in0.0 mm 0.00 in0.0 mm 1.03 in26.2 mm